Time;durP1;ratioP1;P1;durP2;ratioP2;P2;SDS_P1;SDS_P2;PMS_P1;PMS_P2;Temp;Humidity;BMP_temperature;BMP_pressure;BME280_temperature;BME280_humidity;BME280_pressure;Samples;Min_cycle;Max_cycle;Signal;HPM_P1;HPM_P2
2023/03/22 00:02:03;;;;;;;21.05;13.70;;;;;;;10.34;90.93;100889.66;5054964;28;20025;-44
2023/03/22 00:04:28;;;;;;;21.05;14.00;;;;;;;10.34;90.52;100888.84;5053678;28;20033;-42
2023/03/22 00:06:53;;;;;;;21.05;13.40;;;;;;;10.30;90.23;100888.63;5055001;28;20029;-43
2023/03/22 00:09:19;;;;;;;19.50;13.30;;;;;;;10.29;90.61;100884.25;5053596;28;20423;-44
2023/03/22 00:11:45;;;;;;;19.48;13.20;;;;;;;10.26;91.01;100888.41;5054742;28;20480;-44
2023/03/22 00:14:10;;;;;;;21.35;13.80;;;;;;;10.24;90.70;100882.38;5055092;28;20065;-45
2023/03/22 00:16:35;;;;;;;21.73;13.13;;;;;;;10.21;90.40;100873.84;5046958;28;20060;-45
2023/03/22 00:19:00;;;;;;;22.15;13.23;;;;;;;10.14;90.31;100864.00;5054836;28;20097;-43
2023/03/22 00:21:26;;;;;;;20.58;13.18;;;;;;;10.17;90.84;100875.59;5054677;28;20083;-43
2023/03/22 00:23:51;;;;;;;20.30;13.43;;;;;;;10.12;90.40;100871.78;5052770;28;20114;-44
2023/03/22 00:26:16;;;;;;;20.23;13.13;;;;;;;10.11;90.71;100859.06;5054358;28;20398;-46
2023/03/22 00:28:42;;;;;;;20.75;13.60;;;;;;;10.08;91.03;100859.69;5054417;28;20392;-45
2023/03/22 00:31:08;;;;;;;20.17;13.00;;;;;;;10.09;90.72;100858.59;5053086;28;20029;-46
2023/03/22 00:33:33;;;;;;;21.90;13.38;;;;;;;10.08;90.65;100859.69;5054595;28;20025;-44
2023/03/22 00:36:02;;;;;;;19.80;13.02;;;;;;;10.04;90.75;100853.13;5054468;28;20063;-43
2023/03/22 00:38:37;;;;;;;20.77;13.70;;;;;;;10.06;90.94;100848.13;5054639;28;20078;-43
2023/03/22 00:41:05;;;;;;;21.80;13.73;;;;;;;9.99;91.06;100842.16;5054284;28;20025;-45
2023/03/22 00:43:30;;;;;;;20.33;13.43;;;;;;;10.02;90.64;100841.53;5054163;28;20063;-45
2023/03/22 00:45:55;;;;;;;20.77;14.18;;;;;;;9.98;91.15;100835.00;5054120;28;20428;-43
2023/03/22 00:48:21;;;;;;;19.25;13.02;;;;;;;10.00;91.37;100824.47;5052947;28;20063;-43
2023/03/22 00:50:46;;;;;;;21.23;13.15;;;;;;;9.97;92.11;100825.06;5054374;28;20128;-45
2023/03/22 00:53:12;;;;;;;19.48;13.55;;;;;;;9.97;91.98;100822.28;5054227;28;20053;-43
2023/03/22 00:55:37;;;;;;;19.90;13.27;;;;;;;9.98;91.94;100821.19;5053636;28;20029;-43
2023/03/22 00:58:02;;;;;;;21.15;13.30;;;;;;;9.98;91.83;100826.72;5053367;28;20468;-46
2023/03/22 01:00:28;;;;;;;19.95;14.18;;;;;;;9.92;91.66;100816.88;5052704;28;20025;-44
2023/03/22 01:02:58;;;;;;;21.80;14.35;;;;;;;9.89;91.81;100823.00;5053944;28;20040;-44
2023/03/22 01:05:24;;;;;;;20.38;13.90;;;;;;;9.90;92.12;100814.38;5054170;28;20068;-43
2023/03/22 01:07:49;;;;;;;20.98;13.98;;;;;;;9.87;92.01;100820.50;5053892;28;20080;-43
2023/03/22 01:10:16;;;;;;;20.45;14.02;;;;;;;9.87;92.47;100805.88;5054021;28;20028;-46
2023/03/22 01:12:41;;;;;;;21.45;14.13;;;;;;;9.87;92.16;100808.66;5053958;28;20040;-43
2023/03/22 01:15:07;;;;;;;21.40;14.60;;;;;;;9.84;92.51;100801.78;5052087;28;20021;-42
2023/03/22 01:17:32;;;;;;;19.95;14.20;;;;;;;9.83;93.01;100798.19;5053745;28;20025;-43
2023/03/22 01:19:57;;;;;;;22.13;14.40;;;;;;;9.83;92.72;100794.63;5053748;28;20029;-42
2023/03/22 01:22:23;;;;;;;22.27;14.90;;;;;;;9.80;92.81;100790.53;5047659;28;20017;-43
2023/03/22 01:24:49;;;;;;;21.55;14.40;;;;;;;9.75;93.18;100787.84;5054425;28;20388;-42
2023/03/22 01:27:14;;;;;;;20.67;14.10;;;;;;;9.73;93.76;100781.78;5054004;28;20032;-44
2023/03/22 01:29:40;;;;;;;20.60;14.07;;;;;;;9.75;94.21;100770.47;5054268;28;20032;-43
2023/03/22 01:32:05;;;;;;;23.15;14.55;;;;;;;9.78;93.66;100762.38;5053966;28;20068;-44
2023/03/22 01:34:31;;;;;;;23.67;14.70;;;;;;;9.77;94.33;100759.94;5054245;28;20119;-42
2023/03/22 01:36:56;;;;;;;21.55;14.55;;;;;;;9.79;94.78;100749.38;5053966;28;20040;-42
2023/03/22 01:39:21;;;;;;;22.77;14.70;;;;;;;9.77;95.02;100741.41;5053876;28;20020;-43
2023/03/22 01:41:47;;;;;;;21.63;14.77;;;;;;;9.81;95.21;100738.84;5053817;28;20029;-43
2023/03/22 01:44:18;;;;;;;21.50;14.60;;;;;;;9.82;95.53;100732.19;5053846;28;20029;-42
2023/03/22 01:46:46;;;;;;;21.52;15.10;;;;;;;9.83;95.40;100736.59;5053866;28;20454;-43
2023/03/22 01:49:15;;;;;;;21.38;15.43;;;;;;;9.82;95.94;100718.38;5053867;28;20025;-42
2023/03/22 01:51:43;;;;;;;22.55;15.85;;;;;;;9.81;96.19;100720.34;5053795;28;20033;-43
2023/03/22 01:54:13;;;;;;;23.20;15.52;;;;;;;9.78;97.32;100701.59;5053778;28;20463;-43
2023/03/22 01:56:40;;;;;;;22.23;16.70;;;;;;;9.82;97.26;100716.44;5053585;28;20559;-44
2023/03/22 01:59:09;;;;;;;24.20;16.80;;;;;;;9.83;97.78;100695.16;5053262;28;20363;-42
2023/03/22 02:01:36;;;;;;;24.83;16.33;;;;;;;9.85;97.96;100698.44;5063461;28;20036;-43
2023/03/22 02:04:06;;;;;;;23.05;16.48;;;;;;;9.89;98.10;100698.66;5068127;28;20021;-42
2023/03/22 02:06:36;;;;;;;23.75;17.77;;;;;;;9.90;98.11;100692.00;5053318;28;20041;-42
2023/03/22 02:09:07;;;;;;;23.70;16.73;;;;;;;9.97;98.59;100684.13;5053213;28;20021;-44
2023/03/22 02:11:40;;;;;;;22.98;17.00;;;;;;;10.00;98.99;100686.28;5053527;28;20029;-42
2023/03/22 02:14:38;;;;;;;24.02;16.95;;;;;;;10.03;98.94;100687.59;5053261;28;20036;-43
2023/03/22 02:17:26;;;;;;;24.33;17.52;;;;;;;10.05;99.19;100682.59;5051828;28;20465;-43
2023/03/22 02:20:30;;;;;;;23.17;17.15;;;;;;;10.08;99.19;100673.69;5053216;28;20021;-43
2023/03/22 02:23:45;;;;;;;25.60;17.60;;;;;;;10.12;99.04;100669.97;5049331;28;20495;-46
2023/03/22 02:26:30;;;;;;;23.83;17.70;;;;;;;10.14;99.18;100670.50;5051697;28;20041;-45
2023/03/22 02:29:12;;;;;;;21.80;17.20;;;;;;;10.22;99.74;100673.66;5051909;28;20198;-44
2023/03/22 02:32:11;;;;;;;24.52;17.65;;;;;;;10.23;99.22;100669.78;5052651;28;20025;-43
2023/03/22 02:35:19;;;;;;;22.85;16.77;;;;;;;10.23;99.36;100670.63;5051509;28;20083;-44
2023/03/22 02:38:13;;;;;;;24.02;17.70;;;;;;;10.23;98.96;100661.50;5034324;28;20381;-46
2023/03/22 02:40:43;;;;;;;;;;;;;;;10.30;97.90;100657.19;5052895;28;20361;-45
2023/03/22 02:43:19;;;;;;;22.77;17.20;;;;;;;10.27;99.77;100663.31;5052173;28;20384;-46
2023/03/22 02:46:04;;;;;;;23.45;17.52;;;;;;;10.30;99.49;100667.41;5052433;28;20029;-44
2023/03/22 02:49:06;;;;;;;23.02;17.38;;;;;;;10.28;100.00;100670.50;5052266;28;20021;-43
2023/03/22 02:51:35;;;;;;;22.88;17.08;;;;;;;10.29;99.34;100660.28;5050549;28;20491;-47
2023/03/22 02:54:20;;;;;;;24.00;17.80;;;;;;;10.32;99.66;100651.34;5052215;28;20045;-45
2023/03/22 02:56:54;;;;;;;23.75;17.52;;;;;;;10.30;99.19;100648.91;5052033;28;20032;-45
2023/03/22 02:59:23;;;;;;;22.65;16.73;;;;;;;10.25;99.02;100639.88;5052157;28;20037;-44
2023/03/22 03:01:53;;;;;;;23.10;16.58;;;;;;;10.29;99.29;100632.63;5052246;28;20037;-43
2023/03/22 03:04:23;;;;;;;21.95;16.15;;;;;;;10.35;99.08;100645.19;5052196;28;20028;-43
2023/03/22 03:06:51;;;;;;;22.92;16.95;;;;;;;10.35;98.99;100638.84;5051933;28;20036;-44
2023/03/22 03:09:18;;;;;;;21.83;15.88;;;;;;;10.34;99.26;100638.03;5051869;28;20100;-44
2023/03/22 03:11:46;;;;;;;23.10;15.98;;;;;;;10.31;98.88;100627.56;5052123;28;20127;-44
2023/03/22 03:14:24;;;;;;;22.80;16.33;;;;;;;10.30;98.54;100614.88;5051979;28;20029;-44
2023/03/22 03:17:08;;;;;;;23.02;16.00;;;;;;;10.40;98.30;100633.25;5052027;28;20037;-43
2023/03/22 03:19:52;;;;;;;22.88;15.48;;;;;;;10.42;98.10;100629.03;5051409;28;20032;-47
2023/03/22 03:22:33;;;;;;;21.75;15.32;;;;;;;10.44;98.20;100629.53;5055864;28;20043;-44
2023/03/22 03:25:06;;;;;;;21.30;15.20;;;;;;;10.41;97.86;100627.38;5071905;28;20037;-43
2023/03/22 03:27:48;;;;;;;23.70;15.65;;;;;;;10.40;98.37;100622.19;5071363;28;20119;-43
2023/03/22 03:30:23;;;;;;;21.73;15.20;;;;;;;10.43;97.97;100627.91;5071770;28;20024;-44
2023/03/22 03:32:55;;;;;;;21.52;15.38;;;;;;;10.43;97.71;100619.59;5071838;28;20086;-47
2023/03/22 03:35:26;;;;;;;20.75;15.02;;;;;;;10.42;97.80;100622.69;5071883;28;20047;-43
2023/03/22 03:38:00;;;;;;;21.20;15.25;;;;;;;10.39;97.52;100613.03;5071775;28;20033;-44
2023/03/22 03:40:30;;;;;;;20.98;14.70;;;;;;;10.38;97.81;100605.06;5072052;28;20036;-44
2023/03/22 03:42:57;;;;;;;21.00;14.48;;;;;;;10.46;97.29;100615.41;5070228;28;20025;-43
2023/03/22 03:45:24;;;;;;;20.20;14.82;;;;;;;10.42;97.20;100623.50;5071827;28;20024;-44
2023/03/22 03:47:55;;;;;;;20.83;14.95;;;;;;;10.37;97.16;100620.00;5071559;28;20040;-43
2023/03/22 03:50:22;;;;;;;20.48;14.80;;;;;;;10.42;96.88;100629.03;5071856;28;20032;-44
2023/03/22 03:52:48;;;;;;;19.60;14.50;;;;;;;10.42;96.73;100622.69;5070790;28;20052;-44
2023/03/22 03:55:14;;;;;;;20.77;14.50;;;;;;;10.39;96.37;100623.31;5071733;28;20442;-43
2023/03/22 03:57:39;;;;;;;21.70;14.15;;;;;;;10.38;96.88;100629.97;5071561;28;20499;-43
2023/03/22 04:00:05;;;;;;;21.48;14.88;;;;;;;10.33;96.33;100630.84;5071611;28;20044;-44
2023/03/22 04:02:30;;;;;;;21.42;14.23;;;;;;;10.32;96.59;100634.75;5071326;28;20491;-43
2023/03/22 04:04:55;;;;;;;20.85;14.50;;;;;;;10.29;96.81;100638.16;5071316;28;20028;-44
2023/03/22 04:07:21;;;;;;;21.35;13.85;;;;;;;10.32;96.78;100628.41;5070991;28;20029;-44
2023/03/22 04:09:46;;;;;;;20.55;14.75;;;;;;;10.37;96.90;100629.16;5071331;28;20426;-44
2023/03/22 04:12:11;;;;;;;19.60;14.05;;;;;;;10.35;96.05;100620.31;5069414;28;20043;-44
2023/03/22 04:14:37;;;;;;;19.65;13.60;;;;;;;10.32;96.04;100620.94;5070304;28;20036;-44
2023/03/22 04:17:02;;;;;;;20.95;14.00;;;;;;;10.30;96.03;100618.47;5071063;28;20737;-43
2023/03/22 04:19:27;;;;;;;20.23;14.05;;;;;;;10.30;96.28;100621.25;5071774;28;20102;-43
2023/03/22 04:21:53;;;;;;;20.80;13.85;;;;;;;10.33;95.80;100619.81;5067394;28;20048;-43
2023/03/22 04:24:20;;;;;;;19.98;13.70;;;;;;;10.27;95.33;100612.75;5071769;28;20109;-43
2023/03/22 04:26:46;;;;;;;19.25;13.85;;;;;;;10.26;95.32;100614.69;5071551;28;20020;-44
2023/03/22 04:29:11;;;;;;;19.58;13.30;;;;;;;10.30;96.13;100614.88;5071860;28;20387;-44
2023/03/22 04:31:37;;;;;;;20.02;14.05;;;;;;;10.26;95.74;100613.88;5072769;28;20479;-44
2023/03/22 04:34:04;;;;;;;20.23;14.00;;;;;;;10.26;95.77;100611.91;5075699;28;20028;-46
2023/03/22 04:36:34;;;;;;;19.27;13.63;;;;;;;10.28;95.18;100611.63;5075216;28;20040;-44
2023/03/22 04:39:00;;;;;;;20.50;13.55;;;;;;;10.24;95.68;100596.78;5075535;28;20047;-44
2023/03/22 04:41:25;;;;;;;23.30;13.93;;;;;;;10.21;95.51;100605.69;5075497;28;20029;-44
2023/03/22 04:43:50;;;;;;;21.67;13.95;;;;;;;10.18;95.41;100598.03;5056994;28;20372;-44
2023/03/22 04:46:16;;;;;;;20.90;13.75;;;;;;;10.18;95.40;100601.59;5073473;28;20038;-44
2023/03/22 04:48:42;;;;;;;19.58;13.57;;;;;;;10.19;96.33;100594.13;5073494;28;20058;-44
2023/03/22 04:51:09;;;;;;;19.17;13.50;;;;;;;10.15;95.35;100597.50;5075457;28;20371;-45
2023/03/22 04:53:38;;;;;;;19.92;13.43;;;;;;;10.20;95.67;100595.78;5074811;28;20094;-45
2023/03/22 04:56:06;;;;;;;20.63;13.85;;;;;;;10.18;95.53;100593.31;5075179;28;20040;-44
2023/03/22 04:58:34;;;;;;;19.13;13.10;;;;;;;10.18;95.89;100601.59;5074840;28;20060;-46
2023/03/22 05:00:59;;;;;;;20.33;13.52;;;;;;;10.15;95.60;100597.50;5074673;28;20039;-45
2023/03/22 05:03:24;;;;;;;21.77;13.52;;;;;;;10.17;95.54;100594.44;5074583;28;20037;-44
2023/03/22 05:05:52;;;;;;;22.38;13.63;;;;;;;10.15;95.44;100591.19;5074969;28;20027;-46
2023/03/22 05:08:20;;;;;;;21.60;13.18;;;;;;;10.17;95.20;100588.09;5074446;28;20048;-44
2023/03/22 05:10:45;;;;;;;21.30;13.45;;;;;;;10.15;95.46;100591.19;5074940;28;20050;-44
2023/03/22 05:13:10;;;;;;;19.48;13.25;;;;;;;10.13;95.87;100593.44;5074465;28;20021;-44
2023/03/22 05:15:38;;;;;;;19.63;13.60;;;;;;;10.09;95.54;100578.56;5074636;28;20196;-45
2023/03/22 05:18:03;;;;;;;20.75;13.23;;;;;;;10.08;95.45;100586.06;5074436;28;20036;-44
2023/03/22 05:20:29;;;;;;;18.33;12.75;;;;;;;10.15;96.20;100589.22;5073247;28;20045;-42
2023/03/22 05:22:55;;;;;;;21.00;13.00;;;;;;;10.14;95.52;100584.00;5071609;28;20032;-44
2023/03/22 05:25:21;;;;;;;19.88;12.85;;;;;;;10.19;95.90;100580.31;5074784;28;20031;-43
2023/03/22 05:27:49;;;;;;;21.73;12.90;;;;;;;10.19;95.62;100577.56;5065731;28;20029;-43
2023/03/22 05:30:15;;;;;;;21.60;13.45;;;;;;;10.11;94.70;100576.31;5054689;28;20025;-46
2023/03/22 05:32:42;;;;;;;19.40;12.85;;;;;;;10.15;95.86;100571.81;5054485;28;20561;-44
2023/03/22 05:35:08;;;;;;;20.38;13.15;;;;;;;10.13;95.07;100583.19;5054199;28;20361;-43
2023/03/22 05:37:33;;;;;;;19.48;13.02;;;;;;;10.10;94.86;100583.81;5054496;28;20044;-43
2023/03/22 05:39:59;;;;;;;19.98;13.07;;;;;;;10.09;94.99;100582.19;5054219;28;20029;-43
2023/03/22 05:42:25;;;;;;;21.25;13.23;;;;;;;10.12;94.92;100587.06;5053576;28;20060;-44
2023/03/22 05:44:50;;;;;;;18.83;12.65;;;;;;;10.19;95.41;100578.34;5052728;28;20029;-43
2023/03/22 05:47:16;;;;;;;20.77;13.00;;;;;;;10.21;94.45;100583.56;5057157;28;20036;-43
2023/03/22 05:49:41;;;;;;;22.55;13.65;;;;;;;10.31;94.81;100575.03;5074045;28;20032;-43
2023/03/22 05:52:06;;;;;;;19.98;12.93;;;;;;;10.30;93.54;100579.78;5056181;28;20021;-42
2023/03/22 05:54:32;;;;;;;20.83;13.60;;;;;;;10.34;93.28;100579.97;5040801;28;20044;-42
2023/03/22 05:56:57;;;;;;;20.42;13.48;;;;;;;10.30;92.65;100585.31;5035625;28;20136;-43
2023/03/22 05:59:22;;;;;;;20.40;13.10;;;;;;;10.34;93.24;100585.50;5053937;28;20032;-43
2023/03/22 06:01:48;;;;;;;20.27;12.65;;;;;;;10.39;92.98;100582.63;5053893;28;20025;-43
2023/03/22 06:04:13;;;;;;;20.23;13.00;;;;;;;10.41;92.05;100591.44;5053976;28;20070;-43
2023/03/22 06:06:40;;;;;;;19.52;12.30;;;;;;;10.43;92.70;100591.16;5053476;28;20482;-42
2023/03/22 06:09:06;;;;;;;18.85;12.18;;;;;;;10.47;92.77;100594.09;5070945;28;20028;-43
2023/03/22 06:11:34;;;;;;;21.08;12.48;;;;;;;10.45;92.07;100584.16;5073665;28;20034;-42
2023/03/22 06:14:00;;;;;;;19.63;12.05;;;;;;;10.52;92.42;100583.75;5073210;28;20120;-43
2023/03/22 06:16:25;;;;;;;19.23;11.85;;;;;;;10.49;91.66;100578.81;5069396;28;20032;-44
2023/03/22 06:18:51;;;;;;;18.70;11.90;;;;;;;10.47;91.15;100583.84;5073016;28;20032;-43
2023/03/22 06:21:16;;;;;;;19.98;12.35;;;;;;;10.51;91.77;100579.34;5073193;28;20049;-42
2023/03/22 06:23:42;;;;;;;18.05;11.88;;;;;;;10.55;91.71;100574.00;5060082;28;20023;-42
2023/03/22 06:26:10;;;;;;;18.50;11.80;;;;;;;10.55;91.27;100574.00;5052670;28;20031;-42
2023/03/22 06:28:35;;;;;;;18.58;11.75;;;;;;;10.57;91.67;100569.78;5053229;28;20086;-43
2023/03/22 06:31:08;;;;;;;19.48;11.82;;;;;;;10.61;90.89;100575.50;5053106;28;20036;-43
2023/03/22 06:33:35;;;;;;;19.73;11.88;;;;;;;10.61;91.06;100572.75;5051699;28;20403;-43
2023/03/22 06:36:01;;;;;;;19.33;12.35;;;;;;;10.61;91.40;100581.03;5051641;28;20116;-42
2023/03/22 06:38:27;;;;;;;19.50;12.25;;;;;;;10.58;90.48;100576.16;5053011;28;20121;-43
2023/03/22 06:40:53;;;;;;;19.27;11.90;;;;;;;10.55;90.31;100574.81;5052841;28;20040;-43
2023/03/22 06:43:18;;;;;;;20.23;12.30;;;;;;;10.57;90.33;100575.31;5052734;28;20396;-44
2023/03/22 06:45:47;;;;;;;20.23;12.50;;;;;;;10.57;90.54;100574.50;5052507;28;20476;-43
2023/03/22 06:48:12;;;;;;;19.98;11.70;;;;;;;10.61;91.10;100578.28;5060070;28;20044;-43
2023/03/22 06:50:38;;;;;;;19.67;11.80;;;;;;;10.64;90.77;100579.59;5072447;28;20024;-43
2023/03/22 06:53:04;;;;;;;20.88;11.52;;;;;;;10.64;90.25;100580.41;5072160;28;20029;-43
2023/03/22 06:55:33;;;;;;;20.23;11.50;;;;;;;10.74;90.86;100576.56;5071695;28;20060;-43
2023/03/22 06:57:59;;;;;;;19.80;11.75;;;;;;;10.76;89.83;100577.91;5058516;28;20111;-42
2023/03/22 07:00:24;;;;;;;21.38;12.25;;;;;;;10.91;90.80;100579.47;5052075;28;20075;-44
2023/03/22 07:02:49;;;;;;;23.08;12.00;;;;;;;11.01;91.14;100586.72;5051560;28;20410;-43
2023/03/22 07:05:15;;;;;;;21.33;12.05;;;;;;;11.10;89.58;100577.63;5052131;28;20543;-44
2023/03/22 07:07:40;;;;;;;22.10;12.20;;;;;;;11.16;89.30;100587.44;5051410;28;20025;-44
2023/03/22 07:10:06;;;;;;;22.73;12.27;;;;;;;11.16;89.18;100577.19;5050390;28;20071;-43
2023/03/22 07:12:32;;;;;;;20.85;11.50;;;;;;;11.21;89.36;100581.78;5042826;28;20361;-43
2023/03/22 07:14:57;;;;;;;22.90;11.95;;;;;;;11.24;89.29;100576.44;5070843;28;20051;-44
2023/03/22 07:17:22;;;;;;;19.77;11.82;;;;;;;11.21;88.92;100573.47;5070999;28;20462;-43
2023/03/22 07:19:48;;;;;;;18.88;12.18;;;;;;;11.22;88.08;100583.44;5071143;28;20781;-43
2023/03/22 07:22:13;;;;;;;22.08;12.80;;;;;;;11.18;88.63;100569.41;5071316;28;20054;-43
2023/03/22 07:24:38;;;;;;;19.38;11.88;;;;;;;11.14;88.24;100570.34;5071467;28;20119;-43
2023/03/22 07:27:04;;;;;;;19.15;11.63;;;;;;;11.19;88.74;100575.75;5071494;28;20433;-43
2023/03/22 07:29:29;;;;;;;18.45;11.85;;;;;;;11.18;87.59;100586.00;5071107;28;20139;-43
2023/03/22 07:31:55;;;;;;;17.73;11.60;;;;;;;11.23;88.24;100588.63;5071301;28;20059;-43
2023/03/22 07:34:20;;;;;;;20.42;11.88;;;;;;;11.22;87.63;100577.88;5071025;28;20029;-43
2023/03/22 07:36:45;;;;;;;18.75;11.60;;;;;;;11.22;87.48;100589.75;5071435;28;20048;-43
2023/03/22 07:39:10;;;;;;;19.92;11.77;;;;;;;11.31;87.80;100589.00;5071101;28;20444;-43
2023/03/22 07:41:36;;;;;;;20.13;11.82;;;;;;;11.34;86.91;100593.91;5071422;28;20020;-43
2023/03/22 07:44:01;;;;;;;19.38;11.65;;;;;;;11.32;87.18;100582.31;5070954;28;20067;-45
2023/03/22 07:46:26;;;;;;;21.95;12.20;;;;;;;11.37;86.69;100585.78;5070967;28;20040;-43
2023/03/22 07:48:52;;;;;;;20.98;11.77;;;;;;;11.40;86.03;100587.09;5071140;28;20028;-44
2023/03/22 07:51:18;;;;;;;19.02;11.77;;;;;;;11.45;85.22;100591.66;5071336;28;20139;-43
2023/03/22 07:53:43;;;;;;;23.40;12.32;;;;;;;11.46;85.36;100591.38;5071283;28;20029;-43
2023/03/22 07:56:09;;;;;;;22.63;12.32;;;;;;;11.47;84.87;100590.25;5071266;28;20391;-44
2023/03/22 07:58:34;;;;;;;19.55;12.00;;;;;;;11.50;85.69;100602.63;5071026;28;20483;-43
2023/03/22 08:01:09;;;;;;;21.20;12.50;;;;;;;11.54;85.46;100596.13;5071025;28;20048;-43
2023/03/22 08:03:35;;;;;;;21.63;12.18;;;;;;;11.57;85.32;100585.56;5062884;28;20036;-43
2023/03/22 08:06:05;;;;;;;21.40;12.15;;;;;;;11.63;84.45;100589.81;5051179;28;20025;-43
2023/03/22 08:08:31;;;;;;;20.77;12.23;;;;;;;11.65;83.82;100593.88;5053044;28;20458;-44
2023/03/22 08:10:56;;;;;;;19.30;11.38;;;;;;;11.63;82.91;100590.63;5053438;28;20037;-43
2023/03/22 08:13:21;;;;;;;20.00;11.57;;;;;;;11.65;82.27;100587.53;5053244;28;20155;-43
2023/03/22 08:15:47;;;;;;;19.58;11.50;;;;;;;11.65;82.58;100593.09;5070986;28;20487;-44
2023/03/22 08:18:12;;;;;;;20.25;11.68;;;;;;;11.64;82.18;100594.22;5072772;28;20423;-43
2023/03/22 08:20:37;;;;;;;18.88;11.00;;;;;;;11.67;82.26;100599.94;5066035;28;20044;-43
2023/03/22 08:23:03;;;;;;;20.30;11.05;;;;;;;11.70;81.69;100595.69;5049507;28;20029;-44
2023/03/22 08:25:29;;;;;;;21.05;11.27;;;;;;;11.71;80.82;100600.09;5052579;28;20091;-43
2023/03/22 08:27:54;;;;;;;20.00;10.95;;;;;;;11.71;81.45;100583.47;5053221;28;20392;-44
2023/03/22 08:30:21;;;;;;;19.70;11.10;;;;;;;11.76;80.83;100599.94;5051414;28;20458;-44
2023/03/22 08:32:46;;;;;;;19.20;10.93;;;;;;;11.81;81.66;100585.13;5054606;28;20086;-43
2023/03/22 08:35:12;;;;;;;18.67;10.45;;;;;;;11.87;80.47;100594.94;5054534;28;20427;-43
2023/03/22 08:37:38;;;;;;;19.40;10.60;;;;;;;11.92;80.62;100592.03;5054853;28;20628;-43
2023/03/22 08:40:06;;;;;;;17.92;10.25;;;;;;;11.96;80.47;100583.88;5054805;28;20029;-44
2023/03/22 08:42:31;;;;;;;16.25;10.27;;;;;;;12.02;80.14;100577.91;5054545;28;20119;-44
2023/03/22 08:44:56;;;;;;;17.23;10.55;;;;;;;12.13;80.12;100574.81;5054574;28;20527;-44
2023/03/22 08:47:22;;;;;;;19.33;10.50;;;;;;;12.14;79.01;100585.59;5054510;28;20036;-44
2023/03/22 08:49:47;;;;;;;19.90;10.98;;;;;;;12.14;79.19;100576.47;5054145;28;20032;-44
2023/03/22 08:52:12;;;;;;;18.90;11.30;;;;;;;12.23;79.88;100580.06;5054610;28;20055;-44
2023/03/22 08:54:37;;;;;;;19.15;10.93;;;;;;;12.28;78.63;100579.09;5054452;28;20029;-43
2023/03/22 08:57:03;;;;;;;17.35;10.80;;;;;;;12.30;78.35;100577.63;5054751;28;20025;-44
2023/03/22 08:59:29;;;;;;;18.40;10.70;;;;;;;12.37;78.18;100582.69;5054699;28;20129;-43
2023/03/22 09:01:54;;;;;;;18.92;11.20;;;;;;;12.41;77.95;100585.63;5054480;28;20499;-43
2023/03/22 09:04:19;;;;;;;16.83;10.30;;;;;;;12.47;77.34;100582.38;5054518;28;20032;-47
2023/03/22 09:06:45;;;;;;;18.70;10.57;;;;;;;12.48;77.20;100560.97;5054332;28;20468;-43
2023/03/22 09:09:11;;;;;;;17.73;10.38;;;;;;;12.44;77.05;100566.38;5054370;28;20072;-43
2023/03/22 09:11:39;;;;;;;19.30;10.50;;;;;;;12.49;77.06;100573.72;5054293;28;20028;-43
2023/03/22 09:14:04;;;;;;;17.92;10.45;;;;;;;12.55;76.63;100577.97;5054106;28;20040;-43
2023/03/22 09:16:30;;;;;;;18.27;10.80;;;;;;;12.56;76.10;100567.69;5054038;28;20403;-43
2023/03/22 09:18:55;;;;;;;18.52;10.20;;;;;;;12.61;76.28;100573.88;5053897;28;20025;-43
2023/03/22 09:21:21;;;;;;;18.27;10.25;;;;;;;12.68;75.42;100567.84;5053929;28;20142;-43
2023/03/22 09:23:46;;;;;;;17.95;10.25;;;;;;;12.72;75.80;100565.22;5054036;28;20032;-43
2023/03/22 09:26:12;;;;;;;18.50;11.13;;;;;;;12.78;74.91;100561.13;5054010;28;20090;-43
2023/03/22 09:28:37;;;;;;;18.85;10.23;;;;;;;12.82;74.61;100558.50;5053819;28;20055;-44
2023/03/22 09:31:06;;;;;;;20.75;10.40;;;;;;;12.86;74.38;100553.94;5053928;28;20086;-43
2023/03/22 09:33:32;;;;;;;19.85;10.43;;;;;;;12.89;73.36;100567.19;5054028;28;20029;-43
2023/03/22 09:35:58;;;;;;;20.25;10.55;;;;;;;12.88;74.15;100568.31;5052326;28;20524;-43
2023/03/22 09:38:24;;;;;;;18.85;10.55;;;;;;;12.84;73.50;100556.22;5053525;28;20107;-43
2023/03/22 09:40:59;;;;;;;18.67;10.40;;;;;;;12.79;74.16;100549.72;5073285;28;20190;-43
2023/03/22 09:43:28;;;;;;;18.40;10.30;;;;;;;12.83;73.79;100563.75;5073616;28;20081;-43
2023/03/22 09:45:54;;;;;;;17.58;10.50;;;;;;;12.78;73.33;100556.41;5073420;28;20027;-43
2023/03/22 09:48:32;;;;;;;17.55;10.50;;;;;;;12.76;73.97;100549.53;5073351;28;20467;-43
2023/03/22 09:51:00;;;;;;;18.92;10.65;;;;;;;12.74;73.55;100543.53;5073422;28;20024;-44
2023/03/22 09:53:28;;;;;;;18.38;10.68;;;;;;;12.72;74.57;100552.16;5073039;28;20407;-43
2023/03/22 09:56:08;;;;;;;17.73;10.57;;;;;;;12.74;74.07;100549.06;5072983;28;20033;-44
2023/03/22 09:58:36;;;;;;;18.58;10.90;;;;;;;12.74;73.49;100544.31;5071493;28;20548;-43
2023/03/22 10:01:10;;;;;;;17.48;10.27;;;;;;;12.67;73.21;100552.34;5053235;28;20021;-44
2023/03/22 10:04:15;;;;;;;19.02;10.50;;;;;;;12.61;74.41;100542.56;5053174;28;20013;-43
2023/03/22 10:06:47;;;;;;;18.08;10.23;;;;;;;12.55;73.87;100557.72;5053128;28;20037;-43
2023/03/22 10:09:27;;;;;;;19.30;10.75;;;;;;;12.57;73.89;100558.22;5051958;28;20032;-44
2023/03/22 10:12:15;;;;;;;16.85;10.43;;;;;;;12.61;74.25;100550.88;5033142;28;20040;-44
2023/03/22 10:14:50;;;;;;;15.82;10.43;;;;;;;12.62;73.08;100552.50;5042026;28;20033;-44
2023/03/22 10:17:18;;;;;;;19.60;10.32;;;;;;;12.58;73.35;100551.53;5051627;28;20127;-43
2023/03/22 10:19:58;;;;;;;17.90;9.80;;;;;;;12.61;73.99;100556.44;5052961;28;20078;-42
2023/03/22 10:22:30;;;;;;;18.35;9.52;;;;;;;12.54;73.62;100556.91;5052922;28;20480;-43
2023/03/22 10:24:56;;;;;;;19.77;10.27;;;;;;;12.55;74.13;100549.41;5052633;28;20492;-42
2023/03/22 10:27:22;;;;;;;19.98;10.60;;;;;;;12.55;74.41;100566.88;5052744;28;20079;-42
2023/03/22 10:29:58;;;;;;;19.10;10.40;;;;;;;12.47;75.36;100562.94;5050226;28;20056;-43
2023/03/22 10:32:46;;;;;;;17.23;9.88;;;;;;;12.42;75.87;100565.88;5052811;28;20112;-43
2023/03/22 10:35:14;;;;;;;20.42;10.38;;;;;;;12.17;76.62;100559.97;5052372;28;20083;-42
2023/03/22 10:37:41;;;;;;;17.48;10.10;;;;;;;12.27;77.28;100575.50;5052638;28;20059;-43
2023/03/22 10:40:20;;;;;;;19.52;10.30;;;;;;;12.25;79.03;100575.00;5052558;28;20111;-42
2023/03/22 10:42:53;;;;;;;19.20;10.65;;;;;;;12.25;79.50;100583.34;5052379;28;20472;-42
2023/03/22 10:45:20;;;;;;;16.50;10.43;;;;;;;12.18;80.33;100560.81;5051257;28;20037;-42
2023/03/22 10:47:59;;;;;;;18.17;10.40;;;;;;;12.23;81.55;100582.03;5052355;28;20051;-42
2023/03/22 10:50:37;;;;;;;17.75;10.90;;;;;;;12.17;82.21;100581.38;5045363;28;20099;-42
2023/03/22 10:53:04;;;;;;;18.08;10.68;;;;;;;12.06;83.31;100560.63;5050280;28;20094;-42
2023/03/22 10:55:30;;;;;;;18.95;10.50;;;;;;;12.09;83.85;100580.19;5050537;28;20043;-42
2023/03/22 10:58:09;;;;;;;18.42;11.10;;;;;;;12.07;85.75;100576.13;5048646;28;20037;-43
2023/03/22 11:00:35;;;;;;;20.25;11.40;;;;;;;12.11;86.29;100574.31;5050075;28;20056;-43
2023/03/22 11:03:00;;;;;;;18.30;11.45;;;;;;;12.15;86.76;100575.31;5050057;28;20126;-43
2023/03/22 11:05:28;;;;;;;18.15;10.63;;;;;;;12.14;87.51;100579.22;5049950;28;20035;-42
2023/03/22 11:07:57;;;;;;;17.20;10.20;;;;;;;12.17;86.09;100582.16;5049211;28;20021;-42
2023/03/22 11:10:28;;;;;;;18.90;10.98;;;;;;;12.07;85.93;100574.16;5042851;28;20071;-43
2023/03/22 11:13:10;;;;;;;18.45;10.85;;;;;;;12.02;87.72;100568.78;5051517;28;20116;-42
2023/03/22 11:15:39;;;;;;;20.58;11.15;;;;;;;12.03;88.42;100573.19;5051625;28;20028;-44
2023/03/22 11:18:10;;;;;;;20.65;11.63;;;;;;;12.05;89.68;100568.09;5045336;28;20060;-42